Emmett, Idaho
Current Conditions -  °F | °C
As of 11:35 AM on Thursday 30 Oct 2014 (Local Time) from KEUL Reporting Station
Clear Clear  
Wind Chill: 59°   Ceiling: Unl
Heat Index: 59°   Visibility: 10mi
Dew Point: 36°   Wind: 16mph
Humidity: 42%   Direction: 110°ESE
Pressure: 30.16"   Gusts: NA
Location:  43.87°N, 116.5°W
Report Text: KEUL 301735Z AUTO 11014KT 10SM CLR 15/02 A3016 RMK AO1
Loading
Personal Weather Stations






























Interactive Weather Map
Tropical Storm Tracking
New forecast layout! Learn more

10-Day Weather Forecast

Advertisements
Track Severe Weather on mobile